createdAt,value
2023-12-02T00:02:12.689Z,99518.91
2023-12-02T00:04:39.141Z,99510.28
2023-12-02T00:07:05.749Z,99519.38
2023-12-02T00:09:32.168Z,99515.53
2023-12-02T00:11:59.032Z,99522.78
2023-12-02T00:14:25.395Z,99506.72
2023-12-02T00:16:51.796Z,99519.53
2023-12-02T00:19:18.290Z,99513.19
2023-12-02T00:21:44.750Z,99509.91
2023-12-02T00:24:11.193Z,99520.78
2023-12-02T00:26:37.648Z,99508.34
2023-12-02T00:29:04.046Z,99517.53
2023-12-02T00:31:30.388Z,99513.66
2023-12-02T00:33:58.329Z,99520.81
2023-12-02T00:36:25.145Z,99522.94
2023-12-02T00:38:52.184Z,99521.09
2023-12-02T00:41:18.619Z,99514.88
2023-12-02T00:43:45.001Z,99519.97
2023-12-02T00:46:11.320Z,99531.53
2023-12-02T00:48:37.855Z,99529.25
2023-12-02T00:51:04.619Z,99521.31
2023-12-02T00:53:31.047Z,99520.34
2023-12-02T00:55:58.186Z,99527.59
2023-12-02T00:58:31.826Z,99524.59
2023-12-02T01:01:05.305Z,99531.50
2023-12-02T01:03:31.728Z,99537.34
2023-12-02T01:05:58.304Z,99538.59
2023-12-02T01:08:24.768Z,99530.84
2023-12-02T01:10:51.229Z,99536.53
2023-12-02T01:13:17.648Z,99552.84
2023-12-02T01:15:44.071Z,99546.84
2023-12-02T01:18:10.542Z,99541.91
2023-12-02T01:20:36.983Z,99550.28
2023-12-02T01:23:03.442Z,99553.22
2023-12-02T01:25:30.035Z,99557.09
2023-12-02T01:27:56.410Z,99553.00
2023-12-02T01:30:22.802Z,99553.91
2023-12-02T01:32:49.827Z,99553.09
2023-12-02T01:35:16.483Z,99564.28
2023-12-02T01:37:42.865Z,99567.75
2023-12-02T01:40:12.307Z,99569.38
2023-12-02T01:42:39.353Z,99570.94
2023-12-02T01:45:06.447Z,99581.66
2023-12-02T01:47:32.996Z,99574.84
2023-12-02T01:50:01.611Z,99587.75
2023-12-02T01:52:28.499Z,99594.47
2023-12-02T01:54:55.771Z,99593.25
2023-12-02T01:57:22.475Z,99597.88
2023-12-02T01:59:54.280Z,99598.78
2023-12-02T02:02:21.228Z,99599.34
2023-12-02T02:04:49.426Z,99602.31
2023-12-02T02:07:15.797Z,99603.63
2023-12-02T02:09:49.916Z,99602.31
2023-12-02T02:12:17.552Z,99600.38
2023-12-02T02:14:44.100Z,99600.13
2023-12-02T02:17:10.465Z,99606.69
2023-12-02T02:19:37.013Z,99601.34
2023-12-02T02:22:04.827Z,99605.47
2023-12-02T02:24:31.424Z,99603.44
2023-12-02T02:26:57.847Z,99604.16
2023-12-02T02:29:24.272Z,99599.72
2023-12-02T02:31:50.668Z,99600.38
2023-12-02T02:34:17.179Z,99595.91
2023-12-02T02:36:43.828Z,99592.72
2023-12-02T02:39:11.987Z,99583.81
2023-12-02T02:41:38.502Z,99583.50
2023-12-02T02:44:04.989Z,99588.66
2023-12-02T02:46:31.351Z,99594.72
2023-12-02T02:48:58.236Z,99592.84
2023-12-02T02:51:24.729Z,99596.88
2023-12-02T02:53:51.090Z,99598.31
2023-12-02T02:56:17.468Z,99597.69
2023-12-02T02:58:43.882Z,99601.06
2023-12-02T03:01:10.307Z,99599.00
2023-12-02T03:03:36.650Z,99604.56
2023-12-02T03:06:03.165Z,99598.84
2023-12-02T03:08:29.532Z,99604.28
2023-12-02T03:10:55.907Z,99609.47
2023-12-02T03:13:22.338Z,99603.91
2023-12-02T03:15:48.980Z,99607.75
2023-12-02T03:18:15.583Z,99609.09
2023-12-02T03:20:42.025Z,99615.75
2023-12-02T03:23:08.458Z,99616.25
2023-12-02T03:25:34.852Z,99616.59
2023-12-02T03:28:01.244Z,99613.28
2023-12-02T03:30:27.623Z,99621.59
2023-12-02T03:32:54.682Z,99616.94
2023-12-02T03:35:21.199Z,99627.78
2023-12-02T03:37:47.635Z,99633.31
2023-12-02T03:40:14.301Z,99637.28
2023-12-02T03:42:40.721Z,99627.81
2023-12-02T03:45:07.829Z,99636.97
2023-12-02T03:47:34.720Z,99633.56
2023-12-02T03:50:01.163Z,99636.00
2023-12-02T03:52:27.623Z,99642.25
2023-12-02T03:54:54.042Z,99637.31
2023-12-02T03:57:20.800Z,99638.94
2023-12-02T03:59:47.211Z,99648.47
2023-12-02T04:02:13.682Z,99652.47
2023-12-02T04:04:40.092Z,99663.91
2023-12-02T04:07:06.563Z,99658.06
2023-12-02T04:09:33.545Z,99661.69
2023-12-02T04:12:00.028Z,99657.47
2023-12-02T04:14:26.493Z,99658.91
2023-12-02T04:16:53.079Z,99668.47
2023-12-02T04:19:19.557Z,99673.97
2023-12-02T04:21:46.914Z,99668.94
2023-12-02T04:24:13.416Z,99688.88
2023-12-02T04:26:42.329Z,99690.59
2023-12-02T04:29:08.680Z,99686.56
2023-12-02T04:31:35.043Z,99680.38
2023-12-02T04:34:01.695Z,99683.22
2023-12-02T04:36:28.227Z,99691.09
2023-12-02T04:38:54.796Z,99687.59
2023-12-02T04:41:21.165Z,99688.41
2023-12-02T04:43:47.552Z,99685.91
2023-12-02T04:46:14.056Z,99688.50
2023-12-02T04:48:40.679Z,99690.50
2023-12-02T04:51:07.399Z,99686.06
2023-12-02T04:53:34.328Z,99687.81
2023-12-02T04:56:00.817Z,99696.66
2023-12-02T04:58:27.164Z,99692.44
2023-12-02T05:00:54.329Z,99690.81
2023-12-02T05:03:20.812Z,99696.44
2023-12-02T05:05:47.360Z,99707.53
2023-12-02T05:08:14.226Z,99701.31
2023-12-02T05:10:40.600Z,99698.78
2023-12-02T05:13:09.076Z,99711.09
2023-12-02T05:15:35.562Z,99706.88
2023-12-02T05:18:02.022Z,99705.03
2023-12-02T05:20:28.478Z,99717.09
2023-12-02T05:22:54.869Z,99725.03
2023-12-02T05:25:21.542Z,99729.34
2023-12-02T05:27:47.852Z,99739.00
2023-12-02T05:30:14.623Z,99738.84
2023-12-02T05:32:41.116Z,99742.31
2023-12-02T05:35:09.836Z,99749.22
2023-12-02T05:37:36.232Z,99763.22
2023-12-02T05:40:04.235Z,99766.63
2023-12-02T05:44:56.182Z,99774.91
2023-12-02T05:47:22.640Z,99780.25
2023-12-02T05:49:49.026Z,99788.69
2023-12-02T05:52:15.449Z,99794.69
2023-12-02T05:54:41.809Z,99806.13
2023-12-02T05:57:08.237Z,99791.84
2023-12-02T05:59:35.107Z,99798.44
2023-12-02T06:02:01.563Z,99806.94
2023-12-02T06:04:28.015Z,99806.13
2023-12-02T06:06:54.466Z,99813.25
2023-12-02T06:09:20.826Z,99798.50
2023-12-02T06:11:47.185Z,99806.44
2023-12-02T06:14:13.549Z,99811.72
2023-12-02T06:16:39.901Z,99812.38
2023-12-02T06:19:06.504Z,99815.94
2023-12-02T06:21:33.186Z,99815.69
2023-12-02T06:23:59.747Z,99819.25
2023-12-02T06:26:26.132Z,99818.22
2023-12-02T06:28:52.521Z,99821.63
2023-12-02T06:31:18.885Z,99829.47
2023-12-02T06:33:45.494Z,99835.47
2023-12-02T06:36:12.460Z,99829.25
2023-12-02T06:38:38.868Z,99833.78
2023-12-02T06:41:05.941Z,99846.75
2023-12-02T06:43:32.304Z,99838.16
2023-12-02T06:45:58.768Z,99840.50
2023-12-02T06:48:25.208Z,99838.00
2023-12-02T06:50:51.906Z,99845.03
2023-12-02T06:53:18.335Z,99842.69
2023-12-02T06:55:44.772Z,99840.91
2023-12-02T06:58:11.111Z,99852.03
2023-12-02T07:00:37.512Z,99853.72
2023-12-02T07:03:04.114Z,99861.59
2023-12-02T07:05:30.520Z,99871.88
2023-12-02T07:07:57.627Z,99874.63
2023-12-02T07:10:24.020Z,99886.72
2023-12-02T07:12:50.483Z,99886.56
2023-12-02T07:15:16.935Z,99897.75
2023-12-02T07:17:43.292Z,99900.88
2023-12-02T07:20:09.940Z,99898.03
2023-12-02T07:22:37.423Z,99916.34
2023-12-02T07:25:04.170Z,99924.94
2023-12-02T07:27:30.577Z,99917.97
2023-12-02T07:32:26.335Z,99926.47
2023-12-02T07:34:52.747Z,99917.06
2023-12-02T07:37:19.113Z,99932.66
2023-12-02T07:39:45.753Z,99924.59
2023-12-02T07:42:12.128Z,99935.78
2023-12-02T07:44:38.498Z,99935.72
2023-12-02T07:47:05.345Z,99933.03
2023-12-02T07:49:31.812Z,99944.38
2023-12-02T07:51:58.151Z,99937.75
2023-12-02T07:54:24.499Z,99934.09
2023-12-02T07:56:51.007Z,99944.38
2023-12-02T07:59:17.383Z,99946.25
2023-12-02T08:01:43.864Z,99947.16
2023-12-02T08:04:10.286Z,99947.97
2023-12-02T08:06:37.720Z,99958.50
2023-12-02T08:09:04.113Z,99959.31
2023-12-02T08:11:30.585Z,99954.19
2023-12-02T08:13:56.970Z,99962.53
2023-12-02T08:16:23.347Z,99974.63
2023-12-02T08:18:49.853Z,99964.06
2023-12-02T08:21:16.213Z,99976.31
2023-12-02T08:23:42.644Z,99970.25
2023-12-02T08:26:09.135Z,99972.03
2023-12-02T08:28:35.517Z,99980.06
2023-12-02T08:31:01.865Z,99978.28
2023-12-02T08:33:28.214Z,99982.09
2023-12-02T08:35:54.817Z,99977.72
2023-12-02T08:38:21.263Z,99992.69
2023-12-02T08:40:50.132Z,99981.50
2023-12-02T08:43:16.728Z,99989.38
2023-12-02T08:45:43.188Z,99994.81
2023-12-02T08:48:09.684Z,100006.81
2023-12-02T08:50:36.089Z,100007.69
2023-12-02T08:53:02.503Z,100002.75
2023-12-02T08:55:29.109Z,100012.75
2023-12-02T08:57:55.558Z,100007.56
2023-12-02T09:00:22.104Z,100005.06
2023-12-02T09:02:48.686Z,100014.53
2023-12-02T09:05:15.257Z,100010.50
2023-12-02T09:07:41.813Z,100024.97
2023-12-02T09:10:09.842Z,100017.16
2023-12-02T09:12:36.233Z,100021.56
2023-12-02T09:15:10.043Z,100016.34
2023-12-02T09:18:01.406Z,100020.72
2023-12-02T09:20:39.301Z,100023.63
2023-12-02T09:23:07.643Z,100022.59
2023-12-02T09:25:39.639Z,100019.19
2023-12-02T09:28:10.346Z,100029.00
2023-12-02T09:30:50.021Z,100024.78
2023-12-02T09:33:33.787Z,100036.56
2023-12-02T09:36:02.823Z,100041.59
2023-12-02T09:38:29.674Z,100048.25
2023-12-02T09:41:17.828Z,100053.84
2023-12-02T09:44:11.090Z,100056.69
2023-12-02T09:46:43.285Z,100056.19
2023-12-02T09:49:47.403Z,100069.88
2023-12-02T09:52:26.011Z,100060.41
2023-12-02T09:55:15.509Z,100070.53
2023-12-02T09:58:02.504Z,100072.88
2023-12-02T10:00:51.824Z,100067.94
2023-12-02T10:03:49.557Z,100076.44
2023-12-02T10:06:46.563Z,100083.34
2023-12-02T10:09:15.944Z,100074.97
2023-12-02T10:11:59.577Z,100080.28
2023-12-02T10:14:26.864Z,100084.59
2023-12-02T10:16:55.032Z,100088.63
2023-12-02T10:19:42.239Z,100088.63
2023-12-02T10:22:11.325Z,100095.94
2023-12-02T10:24:51.336Z,100092.94
2023-12-02T10:27:18.685Z,100085.88
2023-12-02T10:30:00.434Z,100090.75
2023-12-02T10:32:26.821Z,100088.81
2023-12-02T10:34:53.177Z,100081.91
2023-12-02T10:37:23.530Z,100094.91
2023-12-02T10:39:53.816Z,100090.81
2023-12-02T10:42:41.564Z,100087.59
2023-12-02T10:45:09.791Z,100099.44
2023-12-02T10:47:37.460Z,100098.91
2023-12-02T10:50:05.279Z,100103.84
2023-12-02T10:55:06.930Z,100113.06
2023-12-02T10:57:33.948Z,100109.38
2023-12-02T11:00:08.445Z,100102.03
2023-12-02T11:02:47.465Z,100111.72
2023-12-02T11:05:21.330Z,100110.28
2023-12-02T11:07:52.499Z,100107.22
2023-12-02T11:10:29.119Z,100104.91
2023-12-02T11:13:04.152Z,100098.44
2023-12-02T11:15:43.247Z,100106.63
2023-12-02T11:18:14.867Z,100107.00
2023-12-02T11:20:52.877Z,100107.44
2023-12-02T11:23:41.608Z,100114.91
2023-12-02T11:26:53.738Z,100126.28
2023-12-02T11:29:56.930Z,100120.03
2023-12-02T11:32:35.419Z,100119.69
2023-12-02T11:35:11.952Z,100123.78
2023-12-02T11:38:10.434Z,100132.19
2023-12-02T11:40:58.287Z,100136.06
2023-12-02T11:43:43.046Z,100140.41
2023-12-02T11:46:15.902Z,100143.03
2023-12-02T11:48:58.349Z,100143.78
2023-12-02T11:51:44.254Z,100146.81
2023-12-02T11:54:23.617Z,100150.00
2023-12-02T11:57:18.288Z,100158.13
2023-12-02T12:00:04.847Z,100159.38
2023-12-02T12:02:49.791Z,100146.59
2023-12-02T12:05:23.150Z,100167.53
2023-12-02T12:08:10.386Z,100167.53
2023-12-02T12:10:39.075Z,100178.91
2023-12-02T12:13:09.795Z,100181.84
2023-12-02T12:15:37.620Z,100181.22
2023-12-02T12:18:05.627Z,100178.63
2023-12-02T12:20:32.357Z,100189.47
2023-12-02T12:22:59.141Z,100194.75
2023-12-02T12:25:30.423Z,100189.97
2023-12-02T12:28:04.542Z,100196.88
2023-12-02T12:30:48.255Z,100189.19
2023-12-02T12:33:16.480Z,100196.00
2023-12-02T12:35:43.527Z,100191.53
2023-12-02T12:38:10.810Z,100212.13
2023-12-02T12:40:38.078Z,100215.91
2023-12-02T12:43:04.513Z,100222.66
2023-12-02T12:45:34.317Z,100212.44
2023-12-02T12:48:02.025Z,100233.75
2023-12-02T12:50:34.223Z,100243.13
2023-12-02T12:53:06.319Z,100244.31
2023-12-02T12:55:37.629Z,100256.81
2023-12-02T12:58:08.315Z,100250.91
2023-12-02T13:00:38.261Z,100249.22
2023-12-02T13:03:45.103Z,100249.84
2023-12-02T13:06:37.949Z,100247.59
2023-12-02T13:09:09.403Z,100259.88
2023-12-02T13:12:04.151Z,100256.13
2023-12-02T13:14:37.201Z,100254.69
2023-12-02T13:17:04.404Z,100262.56
2023-12-02T13:19:32.171Z,100270.19
2023-12-02T13:22:01.717Z,100266.94
2023-12-02T13:24:33.053Z,100270.09
2023-12-02T13:26:59.465Z,100273.94
2023-12-02T13:29:26.835Z,100282.97
2023-12-02T13:31:54.254Z,100287.72
2023-12-02T13:34:49.815Z,100297.31
2023-12-02T13:37:22.772Z,100302.06
2023-12-02T13:39:59.247Z,100307.53
2023-12-02T13:42:37.150Z,100314.09
2023-12-02T13:45:08.055Z,100316.13
2023-12-02T13:48:02.966Z,100325.81
2023-12-02T13:50:36.792Z,100321.50
2023-12-02T13:53:26.365Z,100314.69
2023-12-02T13:56:25.394Z,100330.34
2023-12-02T13:59:12.059Z,100318.09
2023-12-02T14:01:45.537Z,100333.69
2023-12-02T14:04:25.612Z,100336.56
2023-12-02T14:06:56.814Z,100337.38
2023-12-02T14:09:25.392Z,100329.59
2023-12-02T14:11:51.761Z,100337.09
2023-12-02T14:14:39.607Z,100339.88
2023-12-02T14:17:33.058Z,100348.41
2023-12-02T14:20:35.471Z,100353.94
2023-12-02T14:23:20.638Z,100356.09
2023-12-02T14:25:59.278Z,100350.72
2023-12-02T14:28:49.969Z,100360.50
2023-12-02T14:31:46.766Z,100367.47
2023-12-02T14:34:32.422Z,100366.84
2023-12-02T14:37:11.040Z,100369.91
2023-12-02T14:39:52.587Z,100368.38
2023-12-02T14:42:49.878Z,100376.81
2023-12-02T14:45:18.631Z,100383.13
2023-12-02T14:47:45.693Z,100381.94
2023-12-02T14:50:12.603Z,100385.50
2023-12-02T14:52:44.143Z,100395.22
2023-12-02T14:55:14.883Z,100395.06
2023-12-02T14:57:41.295Z,100397.63
2023-12-02T15:00:10.445Z,100409.00
2023-12-02T15:02:46.580Z,100405.09
2023-12-02T15:05:15.220Z,100411.09
2023-12-02T15:07:58.100Z,100413.19
2023-12-02T15:10:33.656Z,100416.63
2023-12-02T15:13:06.830Z,100429.19
2023-12-02T15:15:45.176Z,100432.00
2023-12-02T15:18:19.071Z,100436.84
2023-12-02T15:21:09.461Z,100435.97
2023-12-02T15:23:37.549Z,100448.53
2023-12-02T15:26:04.741Z,100451.63
2023-12-02T15:28:30.993Z,100462.78
2023-12-02T15:31:24.711Z,100461.81
2023-12-02T15:33:54.842Z,100452.75
2023-12-02T15:36:23.341Z,100461.00
2023-12-02T15:38:54.256Z,100471.56
2023-12-02T15:41:23.754Z,100465.81
2023-12-02T15:43:54.719Z,100479.97
2023-12-02T15:46:22.292Z,100481.94
2023-12-02T15:48:49.974Z,100482.63
2023-12-02T15:51:19.035Z,100486.22
2023-12-02T15:53:47.264Z,100485.41
2023-12-02T15:56:15.686Z,100497.00
2023-12-02T15:58:42.128Z,100506.63
2023-12-02T16:01:13.013Z,100510.72
2023-12-02T16:03:41.266Z,100519.25
2023-12-02T16:06:09.131Z,100525.09
2023-12-02T16:08:37.983Z,100523.22
2023-12-02T16:11:06.055Z,100524.84
2023-12-02T16:13:38.961Z,100539.16
2023-12-02T16:16:12.915Z,100541.31
2023-12-02T16:18:44.336Z,100543.91
2023-12-02T16:21:19.985Z,100538.38
2023-12-02T16:23:48.323Z,100553.00
2023-12-02T16:26:16.618Z,100549.66
2023-12-02T16:28:45.012Z,100557.44
2023-12-02T16:31:11.777Z,100566.31
2023-12-02T16:33:39.560Z,100566.22
2023-12-02T16:36:06.742Z,100579.38
2023-12-02T16:38:34.607Z,100574.97
2023-12-02T16:41:00.951Z,100575.97
2023-12-02T16:43:27.284Z,100588.09
2023-12-02T16:45:57.257Z,100588.66
2023-12-02T16:48:24.461Z,100591.94
2023-12-02T16:50:52.372Z,100600.03
2023-12-02T16:53:24.611Z,100599.91
2023-12-02T16:55:56.278Z,100602.28
2023-12-02T16:58:26.506Z,100599.47
2023-12-02T17:00:55.105Z,100607.03
2023-12-02T17:03:37.754Z,100614.69
2023-12-02T17:06:23.190Z,100622.75
2023-12-02T17:08:52.584Z,100629.13
2023-12-02T17:11:21.890Z,100624.59
2023-12-02T17:13:55.676Z,100629.28
2023-12-02T17:16:32.364Z,100635.06
2023-12-02T17:19:02.609Z,100635.88
2023-12-02T17:21:32.170Z,100644.78
2023-12-02T17:23:59.356Z,100637.47
2023-12-02T17:26:30.494Z,100644.22
2023-12-02T17:28:57.237Z,100641.97
2023-12-02T17:31:23.957Z,100642.53
2023-12-02T17:33:50.486Z,100642.66
2023-12-02T17:36:17.333Z,100650.75
2023-12-02T17:38:43.998Z,100653.88
2023-12-02T17:41:10.435Z,100649.91
2023-12-02T17:43:36.872Z,100654.16
2023-12-02T17:46:03.660Z,100651.34
2023-12-02T17:48:30.253Z,100647.25
2023-12-02T17:50:56.715Z,100658.25
2023-12-02T17:53:23.762Z,100657.72
2023-12-02T17:55:50.247Z,100651.75
2023-12-02T17:58:16.612Z,100653.44
2023-12-02T18:00:44.755Z,100662.81
2023-12-02T18:03:11.538Z,100655.03
2023-12-02T18:05:38.016Z,100652.53
2023-12-02T18:08:06.057Z,100660.13
2023-12-02T18:10:32.474Z,100659.69
2023-12-02T18:12:58.886Z,100660.97
2023-12-02T18:15:25.301Z,100656.16
2023-12-02T18:17:52.517Z,100666.72
2023-12-02T18:20:19.985Z,100675.19
2023-12-02T18:22:46.662Z,100675.09
2023-12-02T18:25:13.057Z,100673.50
2023-12-02T18:27:39.505Z,100674.66
2023-12-02T18:30:07.316Z,100685.81
2023-12-02T18:32:33.698Z,100688.81
2023-12-02T18:35:00.349Z,100704.34
2023-12-02T18:37:26.748Z,100704.59
2023-12-02T18:39:53.102Z,100702.63
2023-12-02T18:42:19.504Z,100705.81
2023-12-02T18:44:45.893Z,100709.41
2023-12-02T18:47:12.226Z,100711.56
2023-12-02T18:49:38.647Z,100716.94
2023-12-02T18:52:05.022Z,100720.78
2023-12-02T18:54:31.444Z,100722.25
2023-12-02T18:56:57.853Z,100714.28
2023-12-02T18:59:24.202Z,100722.59
2023-12-02T19:01:50.611Z,100719.91
2023-12-02T19:04:17.099Z,100726.63
2023-12-02T19:06:43.746Z,100727.16
2023-12-02T19:09:11.618Z,100734.69
2023-12-02T19:11:38.631Z,100738.78
2023-12-02T19:14:05.056Z,100747.34
2023-12-02T19:16:31.519Z,100746.19
2023-12-02T19:18:58.985Z,100751.38
2023-12-02T19:21:25.557Z,100756.78
2023-12-02T19:23:54.396Z,100753.00
2023-12-02T19:26:20.734Z,100748.75
2023-12-02T19:28:47.283Z,100751.69
2023-12-02T19:31:13.675Z,100753.16
2023-12-02T19:33:40.143Z,100748.69
2023-12-02T19:36:07.127Z,100752.75
2023-12-02T19:38:33.545Z,100748.81
2023-12-02T19:40:59.926Z,100755.22
2023-12-02T19:43:26.343Z,100752.97
2023-12-02T19:45:52.881Z,100754.91
2023-12-02T19:48:19.221Z,100760.44
2023-12-02T19:50:45.622Z,100772.03
2023-12-02T19:53:12.077Z,100766.28
2023-12-02T19:55:38.477Z,100773.59
2023-12-02T19:58:05.136Z,100760.28
2023-12-02T20:00:31.652Z,100774.03
2023-12-02T20:02:58.118Z,100770.88
2023-12-02T20:05:25.752Z,100774.94
2023-12-02T20:07:54.027Z,100790.22
2023-12-02T20:10:20.432Z,100794.25
2023-12-02T20:12:49.927Z,100796.63
2023-12-02T20:15:16.625Z,100796.63
2023-12-02T20:17:43.017Z,100803.59
2023-12-02T20:20:10.083Z,100798.53
2023-12-02T20:22:36.487Z,100810.44
2023-12-02T20:25:02.920Z,100808.53
2023-12-02T20:27:29.385Z,100810.00
2023-12-02T20:29:55.798Z,100817.22
2023-12-02T20:32:22.213Z,100815.59
2023-12-02T20:34:48.692Z,100816.06
2023-12-02T20:37:15.063Z,100813.78
2023-12-02T20:39:41.466Z,100822.41
2023-12-02T20:42:07.978Z,100828.50
2023-12-02T20:44:34.398Z,100819.94
2023-12-02T20:47:01.433Z,100830.09
2023-12-02T20:49:27.957Z,100826.47
2023-12-02T20:51:55.936Z,100826.22
2023-12-02T20:54:22.312Z,100827.38
2023-12-02T20:56:48.683Z,100810.78
2023-12-02T20:59:15.279Z,100820.59
2023-12-02T21:01:41.720Z,100819.50
2023-12-02T21:04:08.143Z,100818.81
2023-12-02T21:06:34.541Z,100815.19
2023-12-02T21:09:00.886Z,100826.34
2023-12-02T21:11:27.232Z,100823.75
2023-12-02T21:13:53.579Z,100823.53
2023-12-02T21:16:19.955Z,100828.63
2023-12-02T21:18:46.441Z,100835.81
2023-12-02T21:21:13.453Z,100834.13
2023-12-02T21:23:40.034Z,100843.28
2023-12-02T21:26:06.664Z,100847.91
2023-12-02T21:28:33.381Z,100844.22
2023-12-02T21:31:00.245Z,100835.13
2023-12-02T21:33:36.331Z,100839.44
2023-12-02T21:36:03.358Z,100844.09
2023-12-02T21:38:46.865Z,100848.72
2023-12-02T21:41:17.339Z,100853.13
2023-12-02T21:43:45.600Z,100860.56
2023-12-02T21:46:30.779Z,100850.53
2023-12-02T21:49:15.955Z,100861.00
2023-12-02T21:51:47.557Z,100861.47
2023-12-02T21:54:19.001Z,100870.72
2023-12-02T21:56:48.065Z,100867.16
2023-12-02T21:59:15.876Z,100866.69
2023-12-02T22:01:43.574Z,100873.97
2023-12-02T22:04:11.363Z,100881.34
2023-12-02T22:07:11.332Z,100884.53
2023-12-02T22:09:39.976Z,100888.19
2023-12-02T22:12:13.504Z,100891.06
2023-12-02T22:14:39.900Z,100888.97
2023-12-02T22:17:07.449Z,100901.41
2023-12-02T22:19:35.131Z,100901.16
2023-12-02T22:22:01.785Z,100898.19
2023-12-02T22:24:28.202Z,100901.25
2023-12-02T22:26:54.666Z,100914.44
2023-12-02T22:29:31.590Z,100913.91
2023-12-02T22:31:59.189Z,100922.69
2023-12-02T22:34:25.779Z,100920.88
2023-12-02T22:36:52.676Z,100921.31
2023-12-02T22:39:27.598Z,100937.72
2023-12-02T22:41:56.864Z,100945.59
2023-12-02T22:44:24.553Z,100933.88
2023-12-02T22:46:52.727Z,100937.75
2023-12-02T22:49:23.010Z,100936.31
2023-12-02T22:51:50.199Z,100948.09
2023-12-02T22:54:34.107Z,100946.16
2023-12-02T22:57:01.024Z,100940.72
2023-12-02T22:59:29.414Z,100945.47
2023-12-02T23:01:56.546Z,100950.78
2023-12-02T23:04:43.262Z,100954.28
2023-12-02T23:07:15.904Z,100953.91
2023-12-02T23:09:46.291Z,100960.72
2023-12-02T23:12:34.999Z,100964.13
2023-12-02T23:15:07.763Z,100969.44
2023-12-02T23:17:36.376Z,100973.97
2023-12-02T23:20:10.082Z,100968.66
2023-12-02T23:22:37.592Z,100969.03
2023-12-02T23:25:10.742Z,100972.72
2023-12-02T23:27:45.336Z,100970.16
2023-12-02T23:30:17.811Z,100973.13
2023-12-02T23:32:44.660Z,100979.06
2023-12-02T23:35:19.463Z,100977.28
2023-12-02T23:37:48.838Z,100978.97
2023-12-02T23:40:26.745Z,100983.75
2023-12-02T23:42:54.569Z,100983.00
2023-12-02T23:45:21.151Z,100969.38
2023-12-02T23:47:48.971Z,100978.22
2023-12-02T23:50:15.392Z,100975.00
2023-12-02T23:52:41.820Z,100970.63
2023-12-02T23:55:09.430Z,100968.31
2023-12-02T23:57:37.239Z,100975.78
